createdAt,value
2016-04-15T00:00:20.723Z,9.34
2016-04-15T00:01:19.913Z,9.44
2016-04-15T00:02:20.696Z,9.46
2016-04-15T00:03:20.699Z,9.48
2016-04-15T00:04:20.702Z,9.62
2016-04-15T00:05:20.736Z,9.58
2016-04-15T00:06:20.739Z,9.56
2016-04-15T00:07:20.757Z,9.54
2016-04-15T00:08:20.775Z,9.47
2016-04-15T00:09:20.778Z,9.43
2016-04-15T00:10:20.812Z,9.51
2016-04-15T00:11:20.815Z,9.39
2016-04-15T00:12:20.802Z,9.39
2016-04-15T00:13:20.883Z,9.47
2016-04-15T00:14:20.839Z,9.59
2016-04-15T00:15:20.888Z,9.55
2016-04-15T00:16:20.875Z,9.48
2016-04-15T00:17:20.894Z,9.5
2016-04-15T00:18:20.896Z,9.5
2016-04-15T00:19:20.914Z,9.34
2016-04-15T00:20:20.963Z,9.46
2016-04-15T00:21:20.935Z,9.48
2016-04-15T00:22:20.953Z,9.39
2016-04-15T00:23:20.987Z,9.37
2016-04-15T00:24:20.990Z,9.37
2016-04-15T00:25:20.993Z,9.29
2016-04-15T00:26:21.011Z,9.22
2016-04-15T00:27:21.061Z,9.23
2016-04-15T00:28:21.079Z,9.21
2016-04-15T00:29:21.051Z,9.21
2016-04-15T00:30:21.068Z,9.16
2016-04-15T00:31:21.071Z,9.13
2016-04-15T00:32:20.950Z,9.13
2016-04-15T00:33:21.094Z,9.03
2016-04-15T00:34:21.174Z,8.97
2016-04-15T00:35:21.153Z,8.97
2016-04-15T00:36:21.140Z,8.99
2016-04-15T00:37:21.158Z,9
2016-04-15T00:38:21.207Z,8.97
2016-04-15T00:39:21.210Z,9
2016-04-15T00:40:21.198Z,8.95
2016-04-15T00:41:21.215Z,9.02
2016-04-15T00:42:21.218Z,9.08
2016-04-15T00:43:21.252Z,9.04
2016-04-15T00:44:21.270Z,8.94
2016-04-15T00:45:21.258Z,8.97
2016-04-15T00:46:21.276Z,8.99
2016-04-15T00:47:21.295Z,8.95
2016-04-15T00:48:21.313Z,9
2016-04-15T00:49:21.315Z,9
2016-04-15T00:50:21.334Z,9.1
2016-04-15T00:51:21.337Z,8.97
2016-04-15T00:52:21.355Z,9.14
2016-04-15T00:53:21.373Z,9.08
2016-04-15T00:54:21.375Z,9.06
2016-04-15T00:55:21.394Z,9.19
2016-04-15T00:56:21.427Z,9.14
2016-04-15T00:57:21.430Z,9.18
2016-04-15T00:58:21.433Z,9.25
2016-04-15T00:59:21.498Z,9.29
2016-04-15T01:00:21.469Z,9.29
2016-04-15T01:01:21.472Z,9.18
2016-04-15T01:02:21.491Z,9.26
2016-04-15T01:03:21.494Z,9.22
2016-04-15T01:04:21.512Z,9.25
2016-04-15T01:05:21.530Z,9.31
2016-04-15T01:06:21.564Z,9.29
2016-04-15T01:07:21.551Z,9.22
2016-04-15T01:08:21.585Z,9.13
2016-04-15T01:09:21.573Z,9.29
2016-04-15T01:10:21.637Z,9.31
2016-04-15T01:11:21.609Z,9.31
2016-04-15T01:12:21.626Z,9.21
2016-04-15T01:13:21.661Z,9.22
2016-04-15T01:14:21.695Z,9.02
2016-04-15T01:15:21.666Z,9
2016-04-15T01:16:21.998Z,9.08
2016-04-15T01:17:21.765Z,9.11
2016-04-15T01:18:21.753Z,9.14
2016-04-15T01:19:21.725Z,9.02
2016-04-15T01:20:21.773Z,9
2016-04-15T01:21:21.745Z,9.1
2016-04-15T01:22:21.763Z,9.08
2016-04-15T01:23:21.766Z,8.94
2016-04-15T01:24:21.784Z,9
2016-04-15T01:25:21.818Z,9.03
2016-04-15T01:26:21.837Z,9.04
2016-04-15T01:27:21.839Z,9.11
2016-04-15T01:28:21.842Z,8.99
2016-04-15T01:29:21.845Z,8.99
2016-04-15T01:30:21.894Z,8.99
2016-04-15T01:31:21.913Z,9.13
2016-04-15T01:32:21.930Z,9.1
2016-04-15T01:33:21.902Z,9.1
2016-04-15T01:34:21.921Z,9.1
2016-04-15T01:35:21.939Z,9.03
2016-04-15T01:36:21.941Z,9.16
2016-04-15T01:37:21.944Z,9.11
2016-04-15T01:38:21.978Z,9
2016-04-15T01:39:21.965Z,9.04
2016-04-15T01:40:21.999Z,9.08
2016-04-15T01:41:22.017Z,8.97
2016-04-15T01:42:22.021Z,9.02
2016-04-15T01:43:22.039Z,8.97
2016-04-15T01:44:22.042Z,8.99
2016-04-15T01:45:22.060Z,8.95
2016-04-15T01:46:22.078Z,9.03
2016-04-15T01:47:22.096Z,9.03
2016-04-15T01:48:22.098Z,9.08
2016-04-15T01:49:22.133Z,8.99
2016-04-15T01:50:22.167Z,8.92
2016-04-15T01:51:22.153Z,8.94
2016-04-15T01:52:22.156Z,8.79
2016-04-15T01:53:22.174Z,8.92
2016-04-15T01:54:22.193Z,8.88
2016-04-15T01:55:23.180Z,8.84
2016-04-15T01:56:22.213Z,8.79
2016-04-15T01:57:22.233Z,8.87
2016-04-15T01:58:22.250Z,8.85
2016-04-15T01:59:22.253Z,8.79
2016-04-15T02:00:22.256Z,8.87
2016-04-15T02:01:22.275Z,8.91
2016-04-15T02:02:22.293Z,8.79
2016-04-15T02:03:22.296Z,8.84
2016-04-15T02:04:22.313Z,8.81
2016-04-15T02:05:22.316Z,8.81
2016-04-15T02:06:22.335Z,8.81
2016-04-15T02:07:22.354Z,8.84
2016-04-15T02:08:22.372Z,8.78
2016-04-15T02:09:22.218Z,8.88
2016-04-15T02:10:22.393Z,8.95
2016-04-15T02:11:22.443Z,8.97
2016-04-15T02:12:22.429Z,9
2016-04-15T02:13:22.432Z,8.97
2016-04-15T02:14:22.278Z,8.94
2016-04-15T02:15:22.453Z,8.99
2016-04-15T02:16:22.471Z,8.97
2016-04-15T02:17:22.473Z,8.92
2016-04-15T02:18:22.508Z,9.02
2016-04-15T02:19:22.525Z,8.97
2016-04-15T02:20:22.513Z,8.94
2016-04-15T02:21:22.531Z,8.92
2016-04-15T02:22:22.549Z,8.94
2016-04-15T02:23:22.568Z,8.92
2016-04-15T02:24:22.570Z,8.99
2016-04-15T02:25:22.589Z,9.03
2016-04-15T02:26:22.608Z,8.97
2016-04-15T02:27:22.625Z,9.03
2016-04-15T02:28:22.628Z,8.99
2016-04-15T02:29:22.647Z,8.82
2016-04-15T02:30:22.665Z,8.88
2016-04-15T02:31:22.668Z,8.79
2016-04-15T02:32:22.702Z,8.79
2016-04-15T02:33:22.704Z,8.81
2016-04-15T02:34:22.707Z,8.89
2016-04-15T02:35:22.724Z,8.87
2016-04-15T02:36:22.727Z,8.85
2016-04-15T02:37:22.746Z,8.81
2016-04-15T02:38:22.765Z,8.89
2016-04-15T02:39:22.768Z,8.79
2016-04-15T02:40:22.785Z,8.82
2016-04-15T02:41:22.804Z,8.94
2016-04-15T02:42:22.807Z,8.92
2016-04-15T02:43:22.825Z,8.99
2016-04-15T02:44:22.843Z,8.92
2016-04-15T02:45:22.845Z,8.97
2016-04-15T02:46:22.879Z,8.99
2016-04-15T02:47:22.882Z,8.92
2016-04-15T02:48:22.885Z,8.97
2016-04-15T02:49:22.904Z,8.97
2016-04-15T02:50:22.923Z,9.04
2016-04-15T02:51:22.940Z,9.02
2016-04-15T02:52:22.943Z,9.14
2016-04-15T02:53:22.962Z,9.03
2016-04-15T02:54:22.964Z,9.13
2016-04-15T02:55:22.983Z,9.03
2016-04-15T02:56:23.000Z,9.14
2016-04-15T02:57:23.003Z,9.04
2016-04-15T02:58:23.022Z,9.1
2016-04-15T02:59:23.039Z,9.11
2016-04-15T03:00:23.058Z,9.1
2016-04-15T03:01:23.092Z,9.08
2016-04-15T03:02:23.080Z,9.02
2016-04-15T03:03:23.097Z,9.1
2016-04-15T03:04:23.100Z,9.21
2016-04-15T03:05:23.119Z,9.18
2016-04-15T03:06:23.137Z,9.21
2016-04-15T03:07:23.171Z,9.25
2016-04-15T03:08:23.143Z,9.19
2016-04-15T03:09:23.223Z,9.25
2016-04-15T03:10:23.194Z,9.13
2016-04-15T03:11:23.196Z,9.16
2016-04-15T03:12:23.231Z,9.23
2016-04-15T03:13:23.234Z,9.25
2016-04-15T03:14:23.236Z,9.22
2016-04-15T03:15:23.254Z,9.25
2016-04-15T03:16:23.257Z,9.19
2016-04-15T03:17:23.275Z,9.25
2016-04-15T03:18:23.309Z,9.29
2016-04-15T03:19:23.297Z,9.29
2016-04-15T03:20:23.315Z,9.4
2016-04-15T03:21:23.334Z,9.4
2016-04-15T03:22:23.351Z,9.46
2016-04-15T03:23:23.354Z,9.46
2016-04-15T03:24:23.373Z,9.37
2016-04-15T03:25:23.375Z,9.36
2016-04-15T03:26:23.394Z,9.44
2016-04-15T03:27:23.411Z,9.44
2016-04-15T03:28:23.430Z,9.41
2016-04-15T03:29:23.433Z,9.32
2016-04-15T03:30:23.483Z,9.51
2016-04-15T03:31:23.486Z,9.5
2016-04-15T03:32:23.488Z,9.51
2016-04-15T03:33:37.600Z,9.55
2016-04-15T03:34:23.494Z,9.55
2016-04-15T03:35:23.511Z,9.5
2016-04-15T03:36:23.530Z,9.51
2016-04-15T03:37:23.548Z,9.51
2016-04-15T03:38:23.566Z,9.5
2016-04-15T03:39:23.569Z,9.5
2016-04-15T03:40:23.588Z,9.36
2016-04-15T03:41:23.590Z,9.44
2016-04-15T03:42:23.624Z,9.46
2016-04-15T03:43:23.627Z,9.44
2016-04-15T03:44:23.676Z,9.41
2016-04-15T03:45:23.773Z,9.36
2016-04-15T03:46:23.666Z,9.36
2016-04-15T03:47:23.701Z,9.4
2016-04-15T03:48:23.687Z,9.4
2016-04-15T03:49:23.706Z,9.36
2016-04-15T03:50:23.723Z,9.39
2016-04-15T03:51:23.742Z,9.39
2016-04-15T03:52:23.745Z,9.36
2016-04-15T03:53:23.763Z,9.4
2016-04-15T03:54:23.781Z,9.39
2016-04-15T03:55:23.784Z,9.4
2016-04-15T03:56:23.802Z,9.39
2016-04-15T03:57:23.820Z,9.4
2016-04-15T03:58:23.822Z,9.39
2016-04-15T03:59:23.841Z,9.46
2016-04-15T04:00:23.891Z,9.47
2016-04-15T04:01:23.863Z,9.51
2016-04-15T04:02:23.881Z,9.48
2016-04-15T04:03:23.899Z,9.51
2016-04-15T04:04:23.918Z,9.55
2016-04-15T04:05:23.921Z,9.59
2016-04-15T04:06:23.954Z,9.56
2016-04-15T04:07:23.957Z,9.54
2016-04-15T04:08:23.960Z,9.58
2016-04-15T04:09:23.977Z,9.55
2016-04-15T04:10:23.996Z,9.55
2016-04-15T04:11:23.999Z,9.54
2016-04-15T04:12:24.018Z,9.59
2016-04-15T04:13:24.020Z,9.64
2016-04-15T04:14:24.038Z,9.72
2016-04-15T04:15:24.151Z,9.68
2016-04-15T04:16:24.090Z,9.69
2016-04-15T04:17:24.093Z,9.65
2016-04-15T04:18:24.112Z,9.55
2016-04-15T04:19:24.129Z,9.56
2016-04-15T04:20:24.148Z,9.54
2016-04-15T04:21:24.167Z,9.64
2016-04-15T04:22:24.153Z,9.73
2016-04-15T04:23:24.187Z,9.72
2016-04-15T04:24:24.174Z,9.62
2016-04-15T04:25:24.192Z,9.72
2016-04-15T04:26:24.211Z,9.62
2016-04-15T04:27:24.230Z,9.66
2016-04-15T04:28:24.233Z,9.73
2016-04-15T04:29:24.251Z,9.66
2016-04-15T04:30:24.284Z,9.73
2016-04-15T04:31:24.287Z,9.69
2016-04-15T04:32:24.290Z,9.8
2016-04-15T04:33:24.308Z,9.76
2016-04-15T04:34:24.311Z,9.87
2016-04-15T04:35:24.329Z,9.83
2016-04-15T04:36:24.347Z,9.84
2016-04-15T04:37:24.366Z,9.8
2016-04-15T04:38:24.384Z,9.83
2016-04-15T04:39:24.387Z,9.82
2016-04-15T04:40:24.248Z,9.84
2016-04-15T04:41:24.407Z,9.8
2016-04-15T04:42:24.441Z,9.87
2016-04-15T04:43:24.444Z,9.89
2016-04-15T04:44:24.463Z,9.94
2016-04-15T04:45:24.481Z,9.89
2016-04-15T04:46:24.499Z,9.94
2016-04-15T04:47:24.502Z,9.97
2016-04-15T04:48:24.504Z,9.94
2016-04-15T04:49:24.539Z,9.95
2016-04-15T04:50:24.541Z,10.05
2016-04-15T04:51:24.455Z,10.04
2016-04-15T04:52:24.610Z,9.95
2016-04-15T04:53:24.688Z,9.89
2016-04-15T04:54:25.331Z,9.86
2016-04-15T04:55:24.683Z,9.83
2016-04-15T04:56:24.654Z,9.86
2016-04-15T04:57:24.641Z,9.84
2016-04-15T04:58:24.644Z,9.84
2016-04-15T04:59:24.678Z,9.86
2016-04-15T05:00:24.681Z,9.79
2016-04-15T05:01:24.683Z,9.76
2016-04-15T05:02:24.717Z,9.77
2016-04-15T05:03:24.720Z,9.69
2016-04-15T05:04:24.738Z,9.66
2016-04-15T05:05:24.741Z,9.69
2016-04-15T05:06:24.758Z,9.74
2016-04-15T05:07:24.793Z,9.77
2016-04-15T05:08:24.796Z,9.79
2016-04-15T05:09:24.798Z,9.82
2016-04-15T05:10:24.817Z,9.84
2016-04-15T05:11:24.866Z,9.84
2016-04-15T05:12:24.854Z,9.82
2016-04-15T05:13:24.857Z,9.83
2016-04-15T05:14:24.859Z,9.82
2016-04-15T05:15:24.877Z,9.83
2016-04-15T05:16:24.896Z,9.83
2016-04-15T05:17:24.898Z,9.82
2016-04-15T05:18:24.932Z,9.91
2016-04-15T05:19:24.950Z,9.84
2016-04-15T05:20:24.937Z,9.8
2016-04-15T05:21:24.987Z,9.8
2016-04-15T05:22:24.973Z,9.86
2016-04-15T05:23:25.008Z,9.82
2016-04-15T05:24:25.011Z,9.82
2016-04-15T05:25:25.013Z,9.8
2016-04-15T05:26:25.078Z,9.8
2016-04-15T05:27:25.050Z,9.82
2016-04-15T05:28:25.053Z,9.8
2016-04-15T05:29:25.087Z,9.84
2016-04-15T05:30:25.073Z,9.72
2016-04-15T05:31:25.092Z,9.69
2016-04-15T05:32:25.125Z,9.68
2016-04-15T05:33:25.144Z,9.76
2016-04-15T05:34:25.131Z,9.83
2016-04-15T05:35:25.165Z,9.86
2016-04-15T05:36:25.169Z,9.95
2016-04-15T05:37:25.186Z,9.92
2016-04-15T05:38:25.205Z,9.91
2016-04-15T05:39:25.223Z,9.98
2016-04-15T05:40:25.225Z,9.94
2016-04-15T05:41:25.244Z,9.92
2016-04-15T05:42:25.262Z,10.04
2016-04-15T05:43:25.280Z,10.04
2016-04-15T05:44:25.299Z,10.05
2016-04-15T05:45:25.301Z,10.12
2016-04-15T05:46:25.304Z,10.09
2016-04-15T05:47:25.354Z,10.04
2016-04-15T05:48:25.340Z,10.01
2016-04-15T05:49:25.359Z,10.12
2016-04-15T05:50:25.362Z,10.22
2016-04-15T05:51:25.395Z,10.13
2016-04-15T05:52:25.415Z,10.04
2016-04-15T05:53:25.401Z,10.07
2016-04-15T05:54:25.435Z,10.05
2016-04-15T05:55:25.438Z,10.05
2016-04-15T05:56:25.440Z,10.01
2016-04-15T05:57:25.475Z,10.02
2016-04-15T05:58:25.477Z,10.04
2016-04-15T05:59:25.480Z,9.98
2016-04-15T06:00:25.498Z,9.95
2016-04-15T06:01:25.547Z,9.99
2016-04-15T06:02:25.566Z,9.94
2016-04-15T06:03:25.568Z,10.04
2016-04-15T06:04:25.571Z,10.04
2016-04-15T06:05:25.589Z,10.17
2016-04-15T06:06:25.607Z,10.19
2016-04-15T06:07:25.610Z,10.22
2016-04-15T06:08:25.613Z,10.17
2016-04-15T06:09:25.616Z,10.19
2016-04-15T06:10:25.478Z,10.16
2016-04-15T06:11:25.497Z,10.07
2016-04-15T06:12:25.686Z,10.01
2016-04-15T06:13:25.689Z,10.01
2016-04-15T06:14:25.707Z,10.07
2016-04-15T06:15:25.726Z,10.07
2016-04-15T06:16:25.760Z,10.15
2016-04-15T06:17:25.621Z,10.22
2016-04-15T06:18:25.749Z,10.26
2016-04-15T06:19:25.768Z,10.22
2016-04-15T06:20:25.787Z,10.25
2016-04-15T06:21:25.638Z,10.4
2016-04-15T06:22:25.830Z,10.37
2016-04-15T06:23:25.833Z,10.44
2016-04-15T06:24:25.836Z,10.42
2016-04-15T06:25:25.853Z,10.48
2016-04-15T06:26:25.872Z,10.46
2016-04-15T06:27:25.910Z,10.67
2016-04-15T06:28:25.913Z,10.63
2016-04-15T06:29:25.915Z,10.67
2016-04-15T06:30:25.934Z,10.53
2016-04-15T06:31:25.968Z,10.46
2016-04-15T06:32:25.955Z,10.41
2016-04-15T06:33:25.974Z,10.48
2016-04-15T06:34:26.008Z,10.56
2016-04-15T06:35:26.010Z,10.63
2016-04-15T06:36:26.029Z,10.68
2016-04-15T06:37:26.032Z,10.79
2016-04-15T06:38:26.034Z,10.82
2016-04-15T06:39:26.052Z,10.86
2016-04-15T06:40:26.070Z,10.82
2016-04-15T06:41:26.089Z,10.94
2016-04-15T06:42:26.107Z,10.9
2016-04-15T06:43:26.109Z,11.05
2016-04-15T06:44:26.128Z,11.08
2016-04-15T06:45:26.192Z,11.12
2016-04-15T06:46:26.180Z,11.18
2016-04-15T06:47:26.183Z,11.23
2016-04-15T06:48:26.185Z,11.27
2016-04-15T06:49:26.189Z,11.29
2016-04-15T06:50:26.222Z,11.29
2016-04-15T06:51:26.225Z,11.36
2016-04-15T06:52:26.259Z,11.4
2016-04-15T06:53:26.464Z,11.44
2016-04-15T06:54:26.280Z,11.4
2016-04-15T06:55:26.282Z,11.4
2016-04-15T06:56:26.300Z,11.48
2016-04-15T06:57:26.319Z,11.59
2016-04-15T06:58:26.338Z,11.59
2016-04-15T06:59:26.356Z,11.59
2016-04-15T07:00:26.391Z,11.63
2016-04-15T07:01:26.377Z,11.55
2016-04-15T07:02:26.396Z,11.55
2016-04-15T07:03:26.398Z,11.62
2016-04-15T07:04:26.416Z,11.66
2016-04-15T07:05:26.450Z,11.63
2016-04-15T07:06:26.452Z,11.68
2016-04-15T07:07:26.471Z,11.72
2016-04-15T07:08:26.490Z,11.73
2016-04-15T07:09:26.492Z,11.9
2016-04-15T07:10:26.510Z,11.94
2016-04-15T07:11:26.544Z,12.03
2016-04-15T07:12:26.578Z,12.09
2016-04-15T07:13:26.565Z,12.2
2016-04-15T07:14:26.599Z,12.22
2016-04-15T07:15:26.602Z,12.27
2016-04-15T07:16:26.604Z,12.37
2016-04-15T07:17:26.639Z,12.47
2016-04-15T07:18:26.642Z,12.47
2016-04-15T07:19:26.660Z,12.43
2016-04-15T07:20:26.678Z,12.47
2016-04-15T07:21:26.685Z,12.47
2016-04-15T07:22:26.735Z,12.57
2016-04-15T07:23:26.722Z,12.62
2016-04-15T07:24:26.740Z,12.7
2016-04-15T07:25:26.758Z,12.64
2016-04-15T07:26:26.760Z,12.75
2016-04-15T07:27:26.779Z,12.8
2016-04-15T07:28:26.679Z,12.78
2016-04-15T07:29:26.806Z,12.79
2016-04-15T07:30:26.824Z,12.85
2016-04-15T07:31:26.843Z,12.86
2016-04-15T07:32:26.860Z,12.98
2016-04-15T07:33:26.895Z,12.97
2016-04-15T07:34:26.897Z,13
2016-04-15T07:35:26.915Z,13
2016-04-15T07:36:26.950Z,13.03
2016-04-15T07:37:26.952Z,12.97
2016-04-15T07:38:26.970Z,13.03
2016-04-15T07:39:26.989Z,13.03
2016-04-15T07:40:27.006Z,13.05
2016-04-15T07:41:27.026Z,13.05
2016-04-15T07:42:27.012Z,13.01
2016-04-15T07:43:27.062Z,13.12
2016-04-15T07:44:27.081Z,13.04
2016-04-15T07:45:27.067Z,13.03
2016-04-15T07:46:27.086Z,13.13
2016-04-15T07:47:27.104Z,13.12
2016-04-15T07:48:27.138Z,13.12
2016-04-15T07:49:27.141Z,13.18
2016-04-15T07:50:27.158Z,13.13
2016-04-15T07:51:27.193Z,13.16
2016-04-15T07:52:27.179Z,13.12
2016-04-15T07:53:27.198Z,13.16
2016-04-15T07:54:27.216Z,13.13
2016-04-15T07:55:27.234Z,13.27
2016-04-15T07:56:27.254Z,13.27
2016-04-15T07:57:27.256Z,13.27
2016-04-15T07:58:27.305Z,13.33
2016-04-15T07:59:27.307Z,13.3
2016-04-15T08:00:27.310Z,13.31
2016-04-15T08:01:27.329Z,13.38
2016-04-15T08:02:27.347Z,13.28
2016-04-15T08:03:27.365Z,13.3
2016-04-15T08:04:27.368Z,13.3
2016-04-15T08:05:27.387Z,13.35
2016-04-15T08:06:27.452Z,13.37
2016-04-15T08:07:27.424Z,13.31
2016-04-15T08:08:27.442Z,13.31
2016-04-15T08:09:27.460Z,13.19
2016-04-15T08:10:27.478Z,13.16
2016-04-15T08:11:27.481Z,13.11
2016-04-15T08:12:27.500Z,13
2016-04-15T08:13:27.533Z,12.94
2016-04-15T08:14:27.536Z,12.97
2016-04-15T08:15:27.569Z,13
2016-04-15T08:16:27.573Z,13
2016-04-15T08:17:27.606Z,13.01
2016-04-15T08:18:27.594Z,13.05
2016-04-15T08:19:27.628Z,13.03
2016-04-15T08:20:27.630Z,13
2016-04-15T08:21:27.670Z,13.05
2016-04-15T08:22:27.673Z,13.01
2016-04-15T08:23:27.691Z,12.94
2016-04-15T08:24:27.709Z,12.91
2016-04-15T08:25:27.711Z,12.94
2016-04-15T08:26:27.746Z,12.83
2016-04-15T08:27:27.749Z,12.76
2016-04-15T08:28:27.766Z,12.75
2016-04-15T08:29:27.770Z,12.75
2016-04-15T08:30:27.803Z,12.68
2016-04-15T08:31:27.827Z,12.73
2016-04-15T08:32:27.888Z,12.76
2016-04-15T08:33:27.933Z,12.78
2016-04-15T08:34:27.993Z,12.75
2016-04-15T08:35:28.039Z,12.73
2016-04-15T08:36:28.097Z,12.78
2016-04-15T08:37:28.146Z,12.79
2016-04-15T08:38:28.164Z,12.78
2016-04-15T08:39:28.213Z,12.78
2016-04-15T08:40:28.216Z,12.83
2016-04-15T08:41:28.264Z,12.9
2016-04-15T08:42:28.303Z,12.94
2016-04-15T08:43:28.311Z,12.91
2016-04-15T08:44:28.320Z,13.01
2016-04-15T08:45:28.360Z,13.04
2016-04-15T08:46:28.367Z,13.09
2016-04-15T08:47:28.387Z,13.09
2016-04-15T08:48:28.407Z,13.16
2016-04-15T08:49:28.427Z,13.13
2016-04-15T08:50:28.478Z,13.19
2016-04-15T08:51:28.452Z,13.16
2016-04-15T08:52:28.472Z,13.16
2016-04-15T08:53:28.490Z,13.04
2016-04-15T08:54:28.510Z,13.08
2016-04-15T08:55:28.529Z,13.2
2016-04-15T08:56:28.547Z,13.25
2016-04-15T08:57:28.566Z,13.3
2016-04-15T08:58:28.569Z,13.35
2016-04-15T08:59:28.588Z,13.39
2016-04-15T09:00:28.622Z,13.41
2016-04-15T09:01:28.718Z,13.53
2016-04-15T09:02:28.971Z,13.49
2016-04-15T09:03:28.662Z,13.5
2016-04-15T09:04:28.712Z,13.57
2016-04-15T09:05:28.699Z,13.54
2016-04-15T09:06:28.717Z,13.57
2016-04-15T09:07:28.735Z,13.65
2016-04-15T09:08:28.737Z,13.68
2016-04-15T09:09:28.756Z,13.74
2016-04-15T09:10:28.775Z,13.7
2016-04-15T09:11:28.792Z,13.79
2016-04-15T09:12:28.842Z,13.83
2016-04-15T09:13:28.813Z,13.79
2016-04-15T09:14:28.863Z,13.87
2016-04-15T09:15:28.850Z,13.96
2016-04-15T09:16:28.791Z,14.05
2016-04-15T09:17:28.887Z,14.15
2016-04-15T09:18:28.921Z,14.2
2016-04-15T09:19:28.924Z,14.18
2016-04-15T09:20:28.957Z,14.32
2016-04-15T09:21:28.960Z,14.3
2016-04-15T09:22:28.979Z,14.37
2016-04-15T09:23:29.013Z,14.36
2016-04-15T09:24:29.265Z,14.33
2016-04-15T09:25:29.034Z,14.43
2016-04-15T09:26:29.052Z,14.44
2016-04-15T09:27:29.071Z,14.44
2016-04-15T09:28:29.073Z,14.55
2016-04-15T09:29:29.091Z,14.53
2016-04-15T09:30:29.126Z,14.51
2016-04-15T09:31:29.190Z,14.58
2016-04-15T09:32:29.146Z,14.58
2016-04-15T09:33:29.179Z,14.59
2016-04-15T09:34:29.198Z,14.45
2016-04-15T09:35:29.201Z,14.41
2016-04-15T09:36:29.220Z,14.47
2016-04-15T09:37:29.238Z,14.35
2016-04-15T09:38:29.256Z,14.25
2016-04-15T09:39:29.275Z,14.05
2016-04-15T09:40:29.292Z,14.1
2016-04-15T09:41:29.326Z,14.07
2016-04-15T09:42:29.314Z,13.96
2016-04-15T09:43:29.331Z,13.87
2016-04-15T09:44:29.366Z,13.89
2016-04-15T09:45:29.383Z,13.89
2016-04-15T09:46:29.339Z,14.03
2016-04-15T09:47:29.421Z,14.05
2016-04-15T09:48:29.424Z,14.11
2016-04-15T09:49:29.473Z,14.04
2016-04-15T09:50:29.475Z,14
2016-04-15T09:51:29.478Z,13.93
2016-04-15T09:52:29.496Z,13.83
2016-04-15T09:53:29.515Z,13.87
2016-04-15T09:54:29.549Z,13.79
2016-04-15T09:55:29.552Z,13.92
2016-04-15T09:56:29.571Z,13.87
2016-04-15T09:57:29.589Z,13.9
2016-04-15T09:58:29.622Z,13.95
2016-04-15T09:59:29.625Z,13.87
2016-04-15T10:00:29.627Z,13.83
2016-04-15T10:01:29.521Z,13.85
2016-04-15T10:02:29.664Z,13.81
2016-04-15T10:03:29.682Z,13.78
2016-04-15T10:04:29.717Z,13.72
2016-04-15T10:05:29.719Z,13.7
2016-04-15T10:06:29.753Z,13.77
2016-04-15T10:07:29.756Z,13.75
2016-04-15T10:08:29.774Z,13.72
2016-04-15T10:09:29.777Z,13.72
2016-04-15T10:10:29.811Z,13.56
2016-04-15T10:11:29.829Z,13.49
2016-04-15T10:12:29.831Z,13.5
2016-04-15T10:13:29.866Z,13.56
2016-04-15T10:14:29.869Z,13.39
2016-04-15T10:15:29.886Z,13.44
2016-04-15T10:16:29.905Z,13.44
2016-04-15T10:17:29.922Z,13.52
2016-04-15T10:18:29.972Z,13.49
2016-04-15T10:19:29.960Z,13.6
2016-04-15T10:20:29.978Z,13.53
2016-04-15T10:21:29.997Z,13.67
2016-04-15T10:22:30.015Z,13.63
2016-04-15T10:23:30.018Z,13.59
2016-04-15T10:24:30.051Z,13.47
2016-04-15T10:25:30.069Z,13.57
2016-04-15T10:26:30.119Z,13.57
2016-04-15T10:27:30.091Z,13.65
2016-04-15T10:28:30.110Z,13.53
2016-04-15T10:29:30.113Z,13.59
2016-04-15T10:30:31.396Z,13.65
2016-04-15T10:31:30.165Z,13.7
2016-04-15T10:32:30.182Z,13.62
2016-04-15T10:33:30.201Z,13.6
2016-04-15T10:34:30.218Z,13.65
2016-04-15T10:35:30.237Z,13.57
2016-04-15T10:36:30.240Z,13.57
2016-04-15T10:37:30.273Z,13.57
2016-04-15T10:38:30.277Z,13.65
2016-04-15T10:39:30.311Z,13.65
2016-04-15T10:40:30.329Z,13.71
2016-04-15T10:41:30.331Z,13.67
2016-04-15T10:42:30.350Z,13.67
2016-04-15T10:43:30.353Z,13.72
2016-04-15T10:44:30.370Z,13.67
2016-04-15T10:45:30.389Z,13.72
2016-04-15T10:46:30.407Z,13.72
2016-04-15T10:47:30.441Z,13.7
2016-04-15T10:48:30.444Z,13.65
2016-04-15T10:49:30.462Z,13.7
2016-04-15T10:50:30.481Z,13.68
2016-04-15T10:51:30.483Z,13.71
2016-04-15T10:52:30.502Z,13.71
2016-04-15T10:53:30.519Z,13.74
2016-04-15T10:54:30.554Z,13.74
2016-04-15T10:55:31.166Z,13.77
2016-04-15T10:56:30.575Z,13.72
2016-04-15T10:57:30.610Z,13.71
2016-04-15T10:58:30.628Z,13.79
2016-04-15T10:59:30.615Z,13.81
2016-04-15T11:00:30.649Z,13.78
2016-04-15T11:01:30.652Z,13.83
2016-04-15T11:02:30.669Z,13.77
2016-04-15T11:03:30.688Z,13.79
2016-04-15T11:04:30.721Z,13.79
2016-04-15T11:05:30.724Z,13.83
2016-04-15T11:06:30.742Z,13.83
2016-04-15T11:07:30.761Z,13.87
2016-04-15T11:08:30.795Z,13.87
2016-04-15T11:09:30.798Z,13.83
2016-04-15T11:10:30.816Z,13.74
2016-04-15T11:11:30.818Z,13.7
2016-04-15T11:12:30.853Z,13.71
2016-04-15T11:13:30.871Z,13.62
2016-04-15T11:14:30.873Z,13.63
2016-04-15T11:15:30.908Z,13.7
2016-04-15T11:16:30.910Z,13.7
2016-04-15T11:17:30.959Z,13.63
2016-04-15T11:18:30.961Z,13.65
2016-04-15T11:19:30.964Z,13.7
2016-04-15T11:20:30.983Z,13.67
2016-04-15T11:21:30.986Z,13.71
2016-04-15T11:22:31.020Z,13.56
2016-04-15T11:23:31.022Z,13.56
2016-04-15T11:24:31.119Z,13.62
2016-04-15T11:25:31.074Z,13.6
2016-04-15T11:26:31.093Z,13.63
2016-04-15T11:27:31.111Z,13.67
2016-04-15T11:28:31.114Z,13.53
2016-04-15T11:29:31.133Z,13.52
2016-04-15T11:30:31.167Z,13.62
2016-04-15T11:31:31.169Z,13.7
2016-04-15T11:32:31.188Z,13.68
2016-04-15T11:33:31.206Z,13.63
2016-04-15T11:34:31.224Z,13.47
2016-04-15T11:35:31.227Z,13.44
2016-04-15T11:36:34.510Z,13.33
2016-04-15T11:37:31.263Z,13.33
2016-04-15T11:38:31.297Z,13.33
2016-04-15T11:39:31.316Z,13.47
2016-04-15T11:40:31.334Z,13.44
2016-04-15T11:41:32.149Z,13.39
2016-04-15T11:42:31.355Z,13.53
2016-04-15T11:43:31.373Z,13.46
2016-04-15T11:44:31.376Z,13.59
2016-04-15T11:45:31.409Z,13.57
2016-04-15T11:46:31.444Z,13.49
2016-04-15T11:47:31.462Z,13.49
2016-04-15T11:48:31.464Z,13.59
2016-04-15T11:49:31.467Z,13.57
2016-04-15T11:50:31.486Z,13.59
2016-04-15T11:51:31.504Z,13.62
2016-04-15T11:52:31.522Z,13.53
2016-04-15T11:53:31.525Z,13.59
2016-04-15T11:54:31.558Z,13.6
2016-04-15T11:55:31.561Z,13.6
2016-04-15T11:56:31.596Z,13.71
2016-04-15T11:57:31.599Z,13.74
2016-04-15T11:58:31.617Z,13.81
2016-04-15T11:59:31.635Z,13.72
2016-04-15T12:00:31.669Z,13.74
2016-04-15T12:01:31.671Z,13.74
2016-04-15T12:02:31.690Z,13.78
2016-04-15T12:03:31.707Z,13.83
2016-04-15T12:04:31.710Z,13.77
2016-04-15T12:05:31.745Z,13.72
2016-04-15T12:06:31.748Z,13.59
2016-04-15T12:07:31.765Z,13.72
2016-04-15T12:08:31.660Z,13.6
2016-04-15T12:09:31.818Z,13.56
2016-04-15T12:10:31.823Z,13.53
2016-04-15T12:11:31.826Z,13.6
2016-04-15T12:12:31.844Z,13.49
2016-04-15T12:13:31.878Z,13.5
2016-04-15T12:14:31.896Z,13.54
2016-04-15T12:15:31.914Z,13.57
2016-04-15T12:16:31.791Z,13.65
2016-04-15T12:17:31.717Z,13.67
2016-04-15T12:18:31.954Z,13.62
2016-04-15T12:19:31.972Z,13.63
2016-04-15T12:20:31.975Z,13.7
2016-04-15T12:21:32.008Z,13.7
2016-04-15T12:22:31.871Z,13.63
2016-04-15T12:23:32.045Z,13.72
2016-04-15T12:24:32.095Z,13.7
2016-04-15T12:25:32.092Z,13.72
2016-04-15T12:26:32.094Z,13.65
2016-04-15T12:27:32.128Z,13.56
2016-04-15T12:28:32.115Z,13.72
2016-04-15T12:29:32.134Z,13.7
2016-04-15T12:30:32.168Z,13.71
2016-04-15T12:31:32.170Z,13.74
2016-04-15T12:32:32.189Z,13.65
2016-04-15T12:33:32.206Z,13.62
2016-04-15T12:34:32.225Z,13.62
2016-04-15T12:35:32.259Z,13.63
2016-04-15T12:36:32.262Z,13.65
2016-04-15T12:37:32.281Z,13.65
2016-04-15T12:38:32.299Z,13.71
2016-04-15T12:39:32.317Z,13.6
2016-04-15T12:40:32.335Z,13.59
2016-04-15T12:41:32.338Z,13.62
2016-04-15T12:42:32.356Z,13.57
2016-04-15T12:43:32.374Z,13.63
2016-04-15T12:44:32.393Z,13.59
2016-04-15T12:45:32.426Z,13.63
2016-04-15T12:46:32.446Z,13.53
2016-04-15T12:47:32.448Z,13.56
2016-04-15T12:48:32.466Z,13.59
2016-04-15T12:49:32.485Z,13.71
2016-04-15T12:50:32.487Z,13.6
2016-04-15T12:51:32.505Z,13.6
2016-04-15T12:52:32.523Z,13.63
2016-04-15T12:53:32.542Z,13.6
2016-04-15T12:54:32.575Z,13.62
2016-04-15T12:55:32.578Z,13.7
2016-04-15T12:56:32.581Z,13.63
2016-04-15T12:57:32.615Z,13.67
2016-04-15T12:58:32.618Z,13.71
2016-04-15T12:59:32.636Z,13.77
2016-04-15T13:00:32.654Z,13.89
2016-04-15T13:01:32.688Z,13.95
2016-04-15T13:02:32.738Z,13.79
2016-04-15T13:03:32.709Z,13.89
2016-04-15T13:04:32.744Z,13.81
2016-04-15T13:05:32.747Z,13.81
2016-04-15T13:06:32.765Z,13.83
2016-04-15T13:07:32.783Z,13.85